sensor_id;sensor_type;location;lat;lon;timestamp;temperature;humidity
53962;DHT22;39868;53.398;6.564;2023-03-23T00:01:58;13.40;84.80
53962;DHT22;39868;53.398;6.564;2023-03-23T00:04:24;13.40;84.70
53962;DHT22;39868;53.398;6.564;2023-03-23T00:06:51;13.30;84.60
53962;DHT22;39868;53.398;6.564;2023-03-23T00:09:17;13.30;84.60
53962;DHT22;39868;53.398;6.564;2023-03-23T00:11:49;13.30;84.60
53962;DHT22;39868;53.398;6.564;2023-03-23T00:14:16;13.30;84.50
53962;DHT22;39868;53.398;6.564;2023-03-23T00:16:48;13.20;84.40
53962;DHT22;39868;53.398;6.564;2023-03-23T00:19:14;13.20;84.50
53962;DHT22;39868;53.398;6.564;2023-03-23T00:21:41;13.20;84.40
53962;DHT22;39868;53.398;6.564;2023-03-23T00:24:14;13.20;84.40
53962;DHT22;39868;53.398;6.564;2023-03-23T00:26:42;13.20;84.50
53962;DHT22;39868;53.398;6.564;2023-03-23T00:31:42;13.10;84.50
53962;DHT22;39868;53.398;6.564;2023-03-23T00:34:12;13.10;84.60
53962;DHT22;39868;53.398;6.564;2023-03-23T00:36:38;13.10;84.70
53962;DHT22;39868;53.398;6.564;2023-03-23T00:39:11;13.10;84.80
53962;DHT22;39868;53.398;6.564;2023-03-23T00:41:39;13.10;84.90
53962;DHT22;39868;53.398;6.564;2023-03-23T00:44:05;13.10;85.00
53962;DHT22;39868;53.398;6.564;2023-03-23T00:46:34;13.10;85.10
53962;DHT22;39868;53.398;6.564;2023-03-23T00:49:00;13.10;85.20
53962;DHT22;39868;53.398;6.564;2023-03-23T00:51:26;13.10;85.30
53962;DHT22;39868;53.398;6.564;2023-03-23T00:53:52;13.10;85.40
53962;DHT22;39868;53.398;6.564;2023-03-23T00:56:20;13.10;85.40
53962;DHT22;39868;53.398;6.564;2023-03-23T00:58:46;13.10;85.70
53962;DHT22;39868;53.398;6.564;2023-03-23T01:01:12;13.10;85.60
53962;DHT22;39868;53.398;6.564;2023-03-23T01:03:40;13.10;85.70
53962;DHT22;39868;53.398;6.564;2023-03-23T01:06:09;13.20;85.80
53962;DHT22;39868;53.398;6.564;2023-03-23T01:08:41;13.20;85.80
53962;DHT22;39868;53.398;6.564;2023-03-23T01:11:14;13.20;85.90
53962;DHT22;39868;53.398;6.564;2023-03-23T01:13:42;13.20;85.90
53962;DHT22;39868;53.398;6.564;2023-03-23T01:16:08;13.20;85.90
53962;DHT22;39868;53.398;6.564;2023-03-23T01:18:34;13.20;85.80
53962;DHT22;39868;53.398;6.564;2023-03-23T01:21:06;13.30;85.90
53962;DHT22;39868;53.398;6.564;2023-03-23T01:23:33;13.20;85.80
53962;DHT22;39868;53.398;6.564;2023-03-23T01:26:03;13.30;85.90
53962;DHT22;39868;53.398;6.564;2023-03-23T01:28:30;13.30;85.90
53962;DHT22;39868;53.398;6.564;2023-03-23T01:31:00;13.30;85.90
53962;DHT22;39868;53.398;6.564;2023-03-23T01:33:26;13.30;85.80
53962;DHT22;39868;53.398;6.564;2023-03-23T01:35:52;13.30;85.80
53962;DHT22;39868;53.398;6.564;2023-03-23T01:38:18;13.30;85.80
53962;DHT22;39868;53.398;6.564;2023-03-23T01:40:44;13.30;85.80
53962;DHT22;39868;53.398;6.564;2023-03-23T01:43:13;13.30;85.70
53962;DHT22;39868;53.398;6.564;2023-03-23T01:45:41;13.30;85.70
53962;DHT22;39868;53.398;6.564;2023-03-23T01:48:13;13.30;85.50
53962;DHT22;39868;53.398;6.564;2023-03-23T01:53:11;13.30;85.30
53962;DHT22;39868;53.398;6.564;2023-03-23T01:55:38;13.30;85.10
53962;DHT22;39868;53.398;6.564;2023-03-23T01:58:06;13.30;85.00
53962;DHT22;39868;53.398;6.564;2023-03-23T02:00:34;13.30;84.80
53962;DHT22;39868;53.398;6.564;2023-03-23T02:03:00;13.30;84.70
53962;DHT22;39868;53.398;6.564;2023-03-23T02:05:38;13.30;84.60
53962;DHT22;39868;53.398;6.564;2023-03-23T02:08:11;13.30;84.50
53962;DHT22;39868;53.398;6.564;2023-03-23T02:10:40;13.40;84.60
53962;DHT22;39868;53.398;6.564;2023-03-23T02:13:08;13.30;84.50
53962;DHT22;39868;53.398;6.564;2023-03-23T02:15:37;13.40;84.60
53962;DHT22;39868;53.398;6.564;2023-03-23T02:21:08;13.40;84.60
53962;DHT22;39868;53.398;6.564;2023-03-23T02:33:44;13.40;84.80
53962;DHT22;39868;53.398;6.564;2023-03-23T02:36:19;13.50;85.00
53962;DHT22;39868;53.398;6.564;2023-03-23T02:41:19;13.50;85.60
53962;DHT22;39868;53.398;6.564;2023-03-23T02:43:47;13.60;85.00
53962;DHT22;39868;53.398;6.564;2023-03-23T02:46:14;13.60;85.00
53962;DHT22;39868;53.398;6.564;2023-03-23T02:48:41;13.60;85.00
53962;DHT22;39868;53.398;6.564;2023-03-23T02:51:08;13.60;85.00
53962;DHT22;39868;53.398;6.564;2023-03-23T02:53:36;13.60;85.00
53962;DHT22;39868;53.398;6.564;2023-03-23T02:56:03;13.70;85.00
53962;DHT22;39868;53.398;6.564;2023-03-23T02:58:30;13.70;84.80
53962;DHT22;39868;53.398;6.564;2023-03-23T03:00:57;13.70;84.70
53962;DHT22;39868;53.398;6.564;2023-03-23T03:03:26;13.70;84.70
53962;DHT22;39868;53.398;6.564;2023-03-23T03:06:00;13.70;84.60
53962;DHT22;39868;53.398;6.564;2023-03-23T03:08:31;13.70;84.40
53962;DHT22;39868;53.398;6.564;2023-03-23T03:11:08;13.70;84.50
53962;DHT22;39868;53.398;6.564;2023-03-23T03:16:28;13.70;84.10
53962;DHT22;39868;53.398;6.564;2023-03-23T03:19:03;13.70;84.10
53962;DHT22;39868;53.398;6.564;2023-03-23T03:21:31;13.80;84.10
53962;DHT22;39868;53.398;6.564;2023-03-23T03:24:00;13.80;84.00
53962;DHT22;39868;53.398;6.564;2023-03-23T03:26:28;13.80;83.90
53962;DHT22;39868;53.398;6.564;2023-03-23T03:29:05;13.80;83.70
53962;DHT22;39868;53.398;6.564;2023-03-23T03:31:36;13.80;83.50
53962;DHT22;39868;53.398;6.564;2023-03-23T03:34:04;13.80;83.60
53962;DHT22;39868;53.398;6.564;2023-03-23T03:36:34;13.80;83.80
53962;DHT22;39868;53.398;6.564;2023-03-23T03:39:05;13.80;83.60
53962;DHT22;39868;53.398;6.564;2023-03-23T03:41:35;13.80;83.60
53962;DHT22;39868;53.398;6.564;2023-03-23T03:44:02;13.80;83.50
53962;DHT22;39868;53.398;6.564;2023-03-23T03:46:28;13.80;83.40
53962;DHT22;39868;53.398;6.564;2023-03-23T03:49:00;13.80;83.50
53962;DHT22;39868;53.398;6.564;2023-03-23T03:51:27;13.80;83.60
53962;DHT22;39868;53.398;6.564;2023-03-23T03:53:56;13.80;83.50
53962;DHT22;39868;53.398;6.564;2023-03-23T03:56:23;13.80;83.50
53962;DHT22;39868;53.398;6.564;2023-03-23T03:59:02;13.80;83.60
53962;DHT22;39868;53.398;6.564;2023-03-23T04:01:47;13.80;83.80
53962;DHT22;39868;53.398;6.564;2023-03-23T04:04:13;13.80;83.70
53962;DHT22;39868;53.398;6.564;2023-03-23T04:06:39;13.80;83.60
53962;DHT22;39868;53.398;6.564;2023-03-23T04:09:05;13.80;83.50
53962;DHT22;39868;53.398;6.564;2023-03-23T04:11:33;13.80;83.60
53962;DHT22;39868;53.398;6.564;2023-03-23T04:14:19;13.70;83.40
53962;DHT22;39868;53.398;6.564;2023-03-23T04:16:45;13.70;83.60
53962;DHT22;39868;53.398;6.564;2023-03-23T04:19:11;13.70;83.60
53962;DHT22;39868;53.398;6.564;2023-03-23T04:21:38;13.60;83.70
53962;DHT22;39868;53.398;6.564;2023-03-23T04:24:05;13.60;83.60
53962;DHT22;39868;53.398;6.564;2023-03-23T04:26:31;13.60;83.70
53962;DHT22;39868;53.398;6.564;2023-03-23T04:29:05;13.50;83.70
53962;DHT22;39868;53.398;6.564;2023-03-23T04:31:31;13.50;83.80
53962;DHT22;39868;53.398;6.564;2023-03-23T04:34:20;13.50;83.80
53962;DHT22;39868;53.398;6.564;2023-03-23T04:36:49;13.40;83.80
53962;DHT22;39868;53.398;6.564;2023-03-23T04:39:21;13.40;83.50
53962;DHT22;39868;53.398;6.564;2023-03-23T04:41:47;13.40;83.40
53962;DHT22;39868;53.398;6.564;2023-03-23T04:44:36;13.40;83.60
53962;DHT22;39868;53.398;6.564;2023-03-23T04:47:09;13.40;83.50
53962;DHT22;39868;53.398;6.564;2023-03-23T04:49:41;13.40;83.60
53962;DHT22;39868;53.398;6.564;2023-03-23T04:52:17;13.40;83.70
53962;DHT22;39868;53.398;6.564;2023-03-23T04:54:50;13.30;83.30
53962;DHT22;39868;53.398;6.564;2023-03-23T04:57:16;13.30;83.20
53962;DHT22;39868;53.398;6.564;2023-03-23T04:59:52;13.30;83.00
53962;DHT22;39868;53.398;6.564;2023-03-23T05:02:24;13.30;83.20
53962;DHT22;39868;53.398;6.564;2023-03-23T05:04:51;13.30;83.10
53962;DHT22;39868;53.398;6.564;2023-03-23T05:07:20;13.30;82.70
53962;DHT22;39868;53.398;6.564;2023-03-23T05:09:48;13.30;82.50
53962;DHT22;39868;53.398;6.564;2023-03-23T05:12:17;13.30;82.60
53962;DHT22;39868;53.398;6.564;2023-03-23T05:14:53;13.20;82.40
53962;DHT22;39868;53.398;6.564;2023-03-23T05:17:24;13.20;82.20
53962;DHT22;39868;53.398;6.564;2023-03-23T05:19:53;13.20;82.20
53962;DHT22;39868;53.398;6.564;2023-03-23T05:22:38;13.20;82.40
53962;DHT22;39868;53.398;6.564;2023-03-23T05:25:06;13.20;82.30
53962;DHT22;39868;53.398;6.564;2023-03-23T05:27:37;13.10;82.40
53962;DHT22;39868;53.398;6.564;2023-03-23T05:30:17;13.10;82.40
53962;DHT22;39868;53.398;6.564;2023-03-23T05:32:44;13.10;82.30
53962;DHT22;39868;53.398;6.564;2023-03-23T05:35:33;13.10;82.40
53962;DHT22;39868;53.398;6.564;2023-03-23T05:38:00;13.10;82.70
53962;DHT22;39868;53.398;6.564;2023-03-23T05:40:28;13.10;82.60
53962;DHT22;39868;53.398;6.564;2023-03-23T05:43:02;13.10;82.70
53962;DHT22;39868;53.398;6.564;2023-03-23T05:45:48;13.10;82.60
53962;DHT22;39868;53.398;6.564;2023-03-23T05:48:16;13.10;82.70
53962;DHT22;39868;53.398;6.564;2023-03-23T05:50:42;13.10;82.70
53962;DHT22;39868;53.398;6.564;2023-03-23T05:53:08;13.10;82.40
53962;DHT22;39868;53.398;6.564;2023-03-23T05:55:38;13.10;82.20
53962;DHT22;39868;53.398;6.564;2023-03-23T05:58:42;13.10;82.10
53962;DHT22;39868;53.398;6.564;2023-03-23T06:01:09;13.10;82.30
53962;DHT22;39868;53.398;6.564;2023-03-23T06:03:35;13.10;82.40
53962;DHT22;39868;53.398;6.564;2023-03-23T06:06:12;13.10;82.00
53962;DHT22;39868;53.398;6.564;2023-03-23T06:09:04;13.10;81.70
53962;DHT22;39868;53.398;6.564;2023-03-23T06:11:44;13.10;81.90
53962;DHT22;39868;53.398;6.564;2023-03-23T06:14:27;13.10;81.90
53962;DHT22;39868;53.398;6.564;2023-03-23T06:16:54;13.10;81.90
53962;DHT22;39868;53.398;6.564;2023-03-23T06:19:21;13.10;81.20
53962;DHT22;39868;53.398;6.564;2023-03-23T06:22:11;13.10;81.40
53962;DHT22;39868;53.398;6.564;2023-03-23T06:24:49;13.10;81.30
53962;DHT22;39868;53.398;6.564;2023-03-23T06:27:22;13.00;81.10
53962;DHT22;39868;53.398;6.564;2023-03-23T06:29:48;13.00;81.30
53962;DHT22;39868;53.398;6.564;2023-03-23T06:32:14;13.00;81.10
53962;DHT22;39868;53.398;6.564;2023-03-23T06:34:42;13.00;80.90
53962;DHT22;39868;53.398;6.564;2023-03-23T06:37:29;13.00;80.80
53962;DHT22;39868;53.398;6.564;2023-03-23T06:40:04;13.00;80.10
53962;DHT22;39868;53.398;6.564;2023-03-23T06:42:38;13.00;79.40
53962;DHT22;39868;53.398;6.564;2023-03-23T06:45:30;13.00;79.00
53962;DHT22;39868;53.398;6.564;2023-03-23T06:48:19;12.90;78.10
53962;DHT22;39868;53.398;6.564;2023-03-23T06:50:45;12.90;77.60
53962;DHT22;39868;53.398;6.564;2023-03-23T06:53:14;12.90;78.00
53962;DHT22;39868;53.398;6.564;2023-03-23T06:55:42;12.90;78.00
53962;DHT22;39868;53.398;6.564;2023-03-23T06:58:08;12.90;78.30
53962;DHT22;39868;53.398;6.564;2023-03-23T07:00:34;13.00;77.90
53962;DHT22;39868;53.398;6.564;2023-03-23T07:03:01;13.00;77.50
53962;DHT22;39868;53.398;6.564;2023-03-23T07:05:27;13.00;77.60
53962;DHT22;39868;53.398;6.564;2023-03-23T07:07:54;13.10;77.50
53962;DHT22;39868;53.398;6.564;2023-03-23T07:10:28;13.10;77.40
53962;DHT22;39868;53.398;6.564;2023-03-23T07:12:55;13.10;76.90
53962;DHT22;39868;53.398;6.564;2023-03-23T07:15:23;13.10;76.50
53962;DHT22;39868;53.398;6.564;2023-03-23T07:17:52;13.20;76.90
53962;DHT22;39868;53.398;6.564;2023-03-23T07:20:42;13.20;77.50
53962;DHT22;39868;53.398;6.564;2023-03-23T07:23:08;13.20;77.60
53962;DHT22;39868;53.398;6.564;2023-03-23T07:25:42;13.20;77.70
53962;DHT22;39868;53.398;6.564;2023-03-23T07:28:12;13.20;77.70
53962;DHT22;39868;53.398;6.564;2023-03-23T07:30:38;13.20;77.70
53962;DHT22;39868;53.398;6.564;2023-03-23T07:33:05;13.20;77.90
53962;DHT22;39868;53.398;6.564;2023-03-23T07:35:32;13.20;78.10
53962;DHT22;39868;53.398;6.564;2023-03-23T07:38:03;13.20;77.70
53962;DHT22;39868;53.398;6.564;2023-03-23T07:40:30;13.30;78.00
53962;DHT22;39868;53.398;6.564;2023-03-23T07:43:04;13.30;78.10
53962;DHT22;39868;53.398;6.564;2023-03-23T07:45:53;13.40;78.50
53962;DHT22;39868;53.398;6.564;2023-03-23T07:48:22;13.40;78.60
53962;DHT22;39868;53.398;6.564;2023-03-23T07:50:48;13.50;78.60
53962;DHT22;39868;53.398;6.564;2023-03-23T07:53:15;13.60;78.50
53962;DHT22;39868;53.398;6.564;2023-03-23T07:55:44;13.70;78.50
53962;DHT22;39868;53.398;6.564;2023-03-23T07:58:28;13.70;78.30
53962;DHT22;39868;53.398;6.564;2023-03-23T08:00:56;13.80;78.40
53962;DHT22;39868;53.398;6.564;2023-03-23T08:03:27;13.90;78.70
53962;DHT22;39868;53.398;6.564;2023-03-23T08:06:19;14.00;78.80
53962;DHT22;39868;53.398;6.564;2023-03-23T08:08:56;14.10;79.20
53962;DHT22;39868;53.398;6.564;2023-03-23T08:11:52;14.10;79.00
53962;DHT22;39868;53.398;6.564;2023-03-23T08:14:53;14.10;78.60
53962;DHT22;39868;53.398;6.564;2023-03-23T08:17:38;14.30;78.30
53962;DHT22;39868;53.398;6.564;2023-03-23T08:20:05;14.50;78.20
53962;DHT22;39868;53.398;6.564;2023-03-23T08:23:01;14.70;77.90
53962;DHT22;39868;53.398;6.564;2023-03-23T08:25:50;15.00;77.50
53962;DHT22;39868;53.398;6.564;2023-03-23T08:28:49;15.20;78.00
53962;DHT22;39868;53.398;6.564;2023-03-23T08:31:40;15.30;77.90
53962;DHT22;39868;53.398;6.564;2023-03-23T08:34:16;15.40;78.10
53962;DHT22;39868;53.398;6.564;2023-03-23T08:37:05;15.50;77.90
53962;DHT22;39868;53.398;6.564;2023-03-23T08:39:53;15.70;76.60
53962;DHT22;39868;53.398;6.564;2023-03-23T08:42:46;15.80;77.00
53962;DHT22;39868;53.398;6.564;2023-03-23T08:45:14;15.90;75.50
53962;DHT22;39868;53.398;6.564;2023-03-23T08:47:59;15.90;74.90
53962;DHT22;39868;53.398;6.564;2023-03-23T08:50:31;15.80;74.90
53962;DHT22;39868;53.398;6.564;2023-03-23T08:53:00;15.80;75.50
53962;DHT22;39868;53.398;6.564;2023-03-23T08:55:47;15.80;75.70
53962;DHT22;39868;53.398;6.564;2023-03-23T08:58:32;15.80;75.60
53962;DHT22;39868;53.398;6.564;2023-03-23T09:01:07;15.80;75.30
53962;DHT22;39868;53.398;6.564;2023-03-23T09:03:59;15.90;76.10
53962;DHT22;39868;53.398;6.564;2023-03-23T09:06:47;16.10;76.10
53962;DHT22;39868;53.398;6.564;2023-03-23T09:09:13;16.20;74.40
53962;DHT22;39868;53.398;6.564;2023-03-23T09:11:39;16.30;74.10
53962;DHT22;39868;53.398;6.564;2023-03-23T09:14:06;16.40;74.40
53962;DHT22;39868;53.398;6.564;2023-03-23T09:16:32;16.50;73.50
53962;DHT22;39868;53.398;6.564;2023-03-23T09:18:59;16.60;71.30
53962;DHT22;39868;53.398;6.564;2023-03-23T09:21:26;16.60;72.00
53962;DHT22;39868;53.398;6.564;2023-03-23T09:23:53;16.60;71.10
53962;DHT22;39868;53.398;6.564;2023-03-23T09:26:22;16.50;73.10
53962;DHT22;39868;53.398;6.564;2023-03-23T09:28:48;16.60;72.50
53962;DHT22;39868;53.398;6.564;2023-03-23T09:31:14;16.50;72.80
53962;DHT22;39868;53.398;6.564;2023-03-23T09:33:40;16.50;71.90
53962;DHT22;39868;53.398;6.564;2023-03-23T09:36:06;16.40;71.80
53962;DHT22;39868;53.398;6.564;2023-03-23T09:38:34;16.40;71.30
53962;DHT22;39868;53.398;6.564;2023-03-23T09:48:58;16.70;68.60
53962;DHT22;39868;53.398;6.564;2023-03-23T09:53:53;16.80;68.80
53962;DHT22;39868;53.398;6.564;2023-03-23T09:56:21;17.00;69.80
53962;DHT22;39868;53.398;6.564;2023-03-23T09:58:54;17.00;70.00
53962;DHT22;39868;53.398;6.564;2023-03-23T10:01:22;17.00;67.00
53962;DHT22;39868;53.398;6.564;2023-03-23T10:03:52;17.00;67.80
53962;DHT22;39868;53.398;6.564;2023-03-23T10:06:21;17.10;67.70
53962;DHT22;39868;53.398;6.564;2023-03-23T10:08:48;17.10;68.10
53962;DHT22;39868;53.398;6.564;2023-03-23T10:14:07;17.10;70.40
53962;DHT22;39868;53.398;6.564;2023-03-23T10:16:39;17.10;70.90
53962;DHT22;39868;53.398;6.564;2023-03-23T10:21:32;17.10;67.60
53962;DHT22;39868;53.398;6.564;2023-03-23T10:24:07;17.00;67.70
53962;DHT22;39868;53.398;6.564;2023-03-23T10:29:36;16.80;65.20
53962;DHT22;39868;53.398;6.564;2023-03-23T10:32:11;16.60;66.20
53962;DHT22;39868;53.398;6.564;2023-03-23T10:39:57;16.40;66.80
53962;DHT22;39868;53.398;6.564;2023-03-23T10:44:53;16.30;65.20
53962;DHT22;39868;53.398;6.564;2023-03-23T10:47:20;16.40;66.60
53962;DHT22;39868;53.398;6.564;2023-03-23T10:49:51;16.40;65.70
53962;DHT22;39868;53.398;6.564;2023-03-23T10:54:54;16.40;65.50
53962;DHT22;39868;53.398;6.564;2023-03-23T10:57:21;16.50;66.40
53962;DHT22;39868;53.398;6.564;2023-03-23T10:59:48;16.50;66.20
53962;DHT22;39868;53.398;6.564;2023-03-23T11:02:17;16.60;65.80
53962;DHT22;39868;53.398;6.564;2023-03-23T11:04:53;16.60;65.60
53962;DHT22;39868;53.398;6.564;2023-03-23T11:07:21;16.70;67.00
53962;DHT22;39868;53.398;6.564;2023-03-23T11:09:53;16.70;66.70
53962;DHT22;39868;53.398;6.564;2023-03-23T11:12:20;16.70;66.60
53962;DHT22;39868;53.398;6.564;2023-03-23T11:14:46;16.70;64.80
53962;DHT22;39868;53.398;6.564;2023-03-23T11:17:25;16.70;66.60
53962;DHT22;39868;53.398;6.564;2023-03-23T11:19:52;16.80;65.70
53962;DHT22;39868;53.398;6.564;2023-03-23T11:22:26;16.80;67.00
53962;DHT22;39868;53.398;6.564;2023-03-23T11:24:54;16.90;66.70
53962;DHT22;39868;53.398;6.564;2023-03-23T11:27:21;17.00;66.80
53962;DHT22;39868;53.398;6.564;2023-03-23T11:32:14;17.10;65.00
53962;DHT22;39868;53.398;6.564;2023-03-23T11:34:43;17.20;62.30
53962;DHT22;39868;53.398;6.564;2023-03-23T11:44:47;17.50;61.30
53962;DHT22;39868;53.398;6.564;2023-03-23T11:52:37;17.70;62.20
53962;DHT22;39868;53.398;6.564;2023-03-23T11:55:10;17.80;61.50
53962;DHT22;39868;53.398;6.564;2023-03-23T11:57:37;17.80;62.60
53962;DHT22;39868;53.398;6.564;2023-03-23T12:00:17;17.90;62.70
53962;DHT22;39868;53.398;6.564;2023-03-23T12:10:47;18.00;60.30
53962;DHT22;39868;53.398;6.564;2023-03-23T12:15:55;18.10;60.60
53962;DHT22;39868;53.398;6.564;2023-03-23T12:26:14;18.30;56.70
53962;DHT22;39868;53.398;6.564;2023-03-23T12:36:25;18.20;58.00
53962;DHT22;39868;53.398;6.564;2023-03-23T12:38:57;18.20;57.80
53962;DHT22;39868;53.398;6.564;2023-03-23T12:41:27;18.20;56.10
53962;DHT22;39868;53.398;6.564;2023-03-23T12:44:03;18.20;57.50
53962;DHT22;39868;53.398;6.564;2023-03-23T12:46:36;18.10;56.20
53962;DHT22;39868;53.398;6.564;2023-03-23T12:49:14;18.10;55.70
53962;DHT22;39868;53.398;6.564;2023-03-23T12:54:13;17.90;58.10
53962;DHT22;39868;53.398;6.564;2023-03-23T13:01:52;17.50;59.20
53962;DHT22;39868;53.398;6.564;2023-03-23T13:04:20;17.40;59.20
53962;DHT22;39868;53.398;6.564;2023-03-23T13:06:48;17.40;59.70
53962;DHT22;39868;53.398;6.564;2023-03-23T13:11:47;17.40;60.90
53962;DHT22;39868;53.398;6.564;2023-03-23T13:19:30;17.30;58.10
53962;DHT22;39868;53.398;6.564;2023-03-23T13:24:47;17.20;59.00
53962;DHT22;39868;53.398;6.564;2023-03-23T13:27:16;17.20;60.00
53962;DHT22;39868;53.398;6.564;2023-03-23T13:29:43;17.20;60.00
53962;DHT22;39868;53.398;6.564;2023-03-23T13:32:12;17.30;61.10
53962;DHT22;39868;53.398;6.564;2023-03-23T13:34:40;17.30;60.10
53962;DHT22;39868;53.398;6.564;2023-03-23T13:37:10;17.40;59.70
53962;DHT22;39868;53.398;6.564;2023-03-23T13:42:25;17.50;59.20
53962;DHT22;39868;53.398;6.564;2023-03-23T13:49:51;17.50;60.80
53962;DHT22;39868;53.398;6.564;2023-03-23T13:52:35;17.50;61.20
53962;DHT22;39868;53.398;6.564;2023-03-23T14:08:03;17.30;61.60
53962;DHT22;39868;53.398;6.564;2023-03-23T14:10:36;17.20;62.00
53962;DHT22;39868;53.398;6.564;2023-03-23T14:13:04;17.30;62.30
53962;DHT22;39868;53.398;6.564;2023-03-23T14:15:31;17.20;61.90
53962;DHT22;39868;53.398;6.564;2023-03-23T14:18:05;17.30;62.40
53962;DHT22;39868;53.398;6.564;2023-03-23T14:20:34;17.20;62.20
53962;DHT22;39868;53.398;6.564;2023-03-23T14:23:01;17.30;62.30
53962;DHT22;39868;53.398;6.564;2023-03-23T14:25:28;17.30;62.40
53962;DHT22;39868;53.398;6.564;2023-03-23T14:27:56;17.30;62.60
53962;DHT22;39868;53.398;6.564;2023-03-23T14:30:25;17.30;62.60
53962;DHT22;39868;53.398;6.564;2023-03-23T14:32:51;17.40;62.70
53962;DHT22;39868;53.398;6.564;2023-03-23T14:35:29;17.50;63.00
53962;DHT22;39868;53.398;6.564;2023-03-23T14:37:55;17.60;61.90
53962;DHT22;39868;53.398;6.564;2023-03-23T14:40:22;17.70;62.80
53962;DHT22;39868;53.398;6.564;2023-03-23T14:42:49;17.80;61.70
53962;DHT22;39868;53.398;6.564;2023-03-23T14:45:16;17.90;62.00
53962;DHT22;39868;53.398;6.564;2023-03-23T14:47:44;18.00;61.70
53962;DHT22;39868;53.398;6.564;2023-03-23T14:50:25;18.20;61.30
53962;DHT22;39868;53.398;6.564;2023-03-23T14:52:52;18.30;59.50
53962;DHT22;39868;53.398;6.564;2023-03-23T14:55:19;18.40;60.20
53962;DHT22;39868;53.398;6.564;2023-03-23T14:57:48;18.50;59.50
53962;DHT22;39868;53.398;6.564;2023-03-23T15:00:22;18.60;59.10
53962;DHT22;39868;53.398;6.564;2023-03-23T15:02:52;18.70;58.50
53962;DHT22;39868;53.398;6.564;2023-03-23T15:05:25;18.80;59.70
53962;DHT22;39868;53.398;6.564;2023-03-23T15:07:53;18.90;59.50
53962;DHT22;39868;53.398;6.564;2023-03-23T15:10:21;19.00;56.40
53962;DHT22;39868;53.398;6.564;2023-03-23T15:12:48;19.10;57.80
53962;DHT22;39868;53.398;6.564;2023-03-23T15:15:27;19.20;57.10
53962;DHT22;39868;53.398;6.564;2023-03-23T15:17:54;19.30;55.30
53962;DHT22;39868;53.398;6.564;2023-03-23T15:20:22;19.40;55.30
53962;DHT22;39868;53.398;6.564;2023-03-23T15:22:49;19.40;57.00
53962;DHT22;39868;53.398;6.564;2023-03-23T15:25:22;19.50;57.30
53962;DHT22;39868;53.398;6.564;2023-03-23T15:27:54;19.60;56.90
53962;DHT22;39868;53.398;6.564;2023-03-23T15:32:53;19.70;55.50
53962;DHT22;39868;53.398;6.564;2023-03-23T15:35:21;19.80;55.00
53962;DHT22;39868;53.398;6.564;2023-03-23T15:37:57;19.80;55.30
53962;DHT22;39868;53.398;6.564;2023-03-23T15:40:24;19.80;56.00
53962;DHT22;39868;53.398;6.564;2023-03-23T15:43:05;19.80;55.30
53962;DHT22;39868;53.398;6.564;2023-03-23T15:45:31;19.80;54.80
53962;DHT22;39868;53.398;6.564;2023-03-23T15:48:04;19.90;54.10
53962;DHT22;39868;53.398;6.564;2023-03-23T15:52:56;19.90;52.20
53962;DHT22;39868;53.398;6.564;2023-03-23T15:55:29;19.80;53.30
53962;DHT22;39868;53.398;6.564;2023-03-23T15:58:01;19.80;53.20
53962;DHT22;39868;53.398;6.564;2023-03-23T16:00:32;19.70;52.40
53962;DHT22;39868;53.398;6.564;2023-03-23T16:03:00;19.70;53.30
53962;DHT22;39868;53.398;6.564;2023-03-23T16:05:28;19.60;53.40
53962;DHT22;39868;53.398;6.564;2023-03-23T16:07:55;19.60;52.20
53962;DHT22;39868;53.398;6.564;2023-03-23T16:10:23;19.50;52.40
53962;DHT22;39868;53.398;6.564;2023-03-23T16:12:51;19.50;53.50
53962;DHT22;39868;53.398;6.564;2023-03-23T16:15:18;19.40;52.10
53962;DHT22;39868;53.398;6.564;2023-03-23T16:17:46;19.30;53.30
53962;DHT22;39868;53.398;6.564;2023-03-23T16:20:18;19.10;53.00
53962;DHT22;39868;53.398;6.564;2023-03-23T16:22:45;19.00;53.30
53962;DHT22;39868;53.398;6.564;2023-03-23T16:25:13;18.80;53.80
53962;DHT22;39868;53.398;6.564;2023-03-23T16:27:41;18.70;54.60
53962;DHT22;39868;53.398;6.564;2023-03-23T16:30:16;18.50;54.90
53962;DHT22;39868;53.398;6.564;2023-03-23T16:32:43;18.40;55.40
53962;DHT22;39868;53.398;6.564;2023-03-23T16:35:13;18.30;56.00
53962;DHT22;39868;53.398;6.564;2023-03-23T16:37:44;18.20;56.10
53962;DHT22;39868;53.398;6.564;2023-03-23T16:40:12;18.00;56.10
53962;DHT22;39868;53.398;6.564;2023-03-23T16:42:39;17.90;56.50
53962;DHT22;39868;53.398;6.564;2023-03-23T16:45:07;17.80;56.90
53962;DHT22;39868;53.398;6.564;2023-03-23T16:47:35;17.60;57.10
53962;DHT22;39868;53.398;6.564;2023-03-23T16:50:03;17.50;57.40
53962;DHT22;39868;53.398;6.564;2023-03-23T16:52:32;17.30;57.60
53962;DHT22;39868;53.398;6.564;2023-03-23T16:55:12;17.20;57.90
53962;DHT22;39868;53.398;6.564;2023-03-23T16:57:39;17.10;58.30
53962;DHT22;39868;53.398;6.564;2023-03-23T17:00:10;17.00;58.50
53962;DHT22;39868;53.398;6.564;2023-03-23T17:02:39;16.90;58.90
53962;DHT22;39868;53.398;6.564;2023-03-23T17:05:08;16.80;59.20
53962;DHT22;39868;53.398;6.564;2023-03-23T17:07:36;16.70;59.40
53962;DHT22;39868;53.398;6.564;2023-03-23T17:10:03;16.60;59.50
53962;DHT22;39868;53.398;6.564;2023-03-23T17:12:31;16.50;59.90
53962;DHT22;39868;53.398;6.564;2023-03-23T17:14:59;16.40;60.40
53962;DHT22;39868;53.398;6.564;2023-03-23T17:17:26;16.30;60.50
53962;DHT22;39868;53.398;6.564;2023-03-23T17:19:54;16.30;60.70
53962;DHT22;39868;53.398;6.564;2023-03-23T17:22:22;16.20;60.90
53962;DHT22;39868;53.398;6.564;2023-03-23T17:24:49;16.20;61.40
53962;DHT22;39868;53.398;6.564;2023-03-23T17:27:18;16.10;61.60
53962;DHT22;39868;53.398;6.564;2023-03-23T17:29:45;16.00;61.60
53962;DHT22;39868;53.398;6.564;2023-03-23T17:32:12;16.00;61.80
53962;DHT22;39868;53.398;6.564;2023-03-23T17:34:39;15.90;62.10
53962;DHT22;39868;53.398;6.564;2023-03-23T17:37:09;15.80;61.90
53962;DHT22;39868;53.398;6.564;2023-03-23T17:39:36;15.80;62.40
53962;DHT22;39868;53.398;6.564;2023-03-23T17:42:09;15.70;62.40
53962;DHT22;39868;53.398;6.564;2023-03-23T17:44:36;15.70;62.40
53962;DHT22;39868;53.398;6.564;2023-03-23T17:47:03;15.60;62.80
53962;DHT22;39868;53.398;6.564;2023-03-23T17:49:31;15.60;63.00
53962;DHT22;39868;53.398;6.564;2023-03-23T17:51:58;15.50;63.00
53962;DHT22;39868;53.398;6.564;2023-03-23T17:54:25;15.50;62.90
53962;DHT22;39868;53.398;6.564;2023-03-23T17:56:55;15.40;63.30
53962;DHT22;39868;53.398;6.564;2023-03-23T17:59:24;15.30;63.20
53962;DHT22;39868;53.398;6.564;2023-03-23T18:01:52;15.30;63.40
53962;DHT22;39868;53.398;6.564;2023-03-23T18:04:19;15.30;63.80
53962;DHT22;39868;53.398;6.564;2023-03-23T18:06:46;15.20;64.00
53962;DHT22;39868;53.398;6.564;2023-03-23T18:09:13;15.20;63.90
53962;DHT22;39868;53.398;6.564;2023-03-23T18:11:41;15.10;63.90